Winnebago Heights, Iowa
Current Conditions -  °F | °C
As of 12:12 AM on Monday 22 Dec 2014 (Local Time) from KMCW Reporting Station
Haze Haze  
Wind Chill: -2°   Ceiling: 300
Heat Index:   Visibility: 3mi
Dew Point:   Wind: 17mph
Humidity: 97%   Direction: 150°SSE
Pressure: 29.74"   Gusts: NA
Location:  43.1451°N, 93.1385°W
Report Text: KMCW 220612Z AUTO 15015KT 3SM BR OVC003 03/03 A2974 RMK AO2 UPE0559RAB0559E10 P0000 T00330028 $
Loading
Personal Weather Stations






























Interactive Weather Map New forecast layout! Learn more

10-Day Weather Forecast

Advertisements
Track Severe Weather on mobile